Rp Zug — HE7351 — position and weather

sailwx.info

Track history (hours):
 
Tides and Currents Weather Stations Pressure Air Temp Water Temp Dewpoint Dewpoint Depression Visibility Wind Speed Wind Dir Waves Ship Positions

Rp Zug

Last reported at 2014-Aug-15 17:31 UTC. Time now 2014-Aug-23 03:39 UTC.
Position N 50°55' E 006°58'.

Type: Tanker. MMSI: 269057351.

Date/timePositionNaut miles runAvg speedWind from/ knotsBaromVisibWave heightAir tempDewpointWater temp
2014-Aug-15 17:31N 50°55' E 006°58'15 3.4
2014-Aug-15 13:17N 51°09' E 006°48'3 3.8
2014-Aug-15 12:33N 51°11' E 006°46'3 2.7
2014-Aug-15 11:33N 51°14' E 006°45'3 3.0
2014-Aug-15 10:26N 51°16' E 006°42'49 3.5
2014-Aug-14 20:32N 51°52' E 005°48'6 6.5
2014-Aug-14 19:33N 51°54' E 005°38'6 6.5
2014-Aug-14 18:33N 51°53' E 005°28'6 6.3
2014-Aug-14 17:33N 51°48' E 005°21'6 5.7
2014-Aug-14 16:33N 51°49' E 005°12'6 6.3
2014-Aug-14 15:33N 51°49' E 005°02'7 7.4
2014-Aug-14 14:33N 51°49' E 004°50'6 6.4
2014-Aug-14 13:33N 51°51' E 004°40'7 6.9
2014-Aug-14 12:33N 51°55' E 004°31'5 5.5
2014-Aug-14 11:33N 51°53' E 004°22'0 0.0
2014-Aug-14 10:33N 51°53' E 004°22'0 0.0
2014-Aug-14 09:26N 51°53' E 004°22'0 0.0
2014-Aug-14 08:30N 51°53' E 004°22'0 0.3
2014-Aug-14 07:32N 51°53' E 004°22'0 0.0
2014-Aug-14 06:33N 51°53' E 004°22'0 0.0
2014-Aug-14 05:33N 51°53' E 004°22'0 0.0
2014-Aug-14 04:32N 51°53' E 004°22'0 0.0
2014-Aug-14 03:24N 51°53' E 004°22'0 0.0
2014-Aug-14 02:33N 51°53' E 004°22'0 0.0
2014-Aug-14 01:32N 51°53' E 004°22'0 0.0
2014-Aug-14 00:33N 51°53' E 004°22'0 0.0
2014-Aug-13 23:33N 51°53' E 004°22'0 0.3
2014-Aug-13 22:33N 51°54' E 004°22'0 0.0
2014-Aug-13 21:33N 51°54' E 004°22'0 0.0
2014-Aug-13 20:33N 51°54' E 004°22'0 0.0
2014-Aug-13 19:33N 51°54' E 004°22'0 0.0
2014-Aug-13 18:33N 51°54' E 004°22'7 7.1
2014-Aug-13 17:33N 51°54' E 004°34'8 8.0
2014-Aug-13 16:34N 51°49' E 004°43'1111.0
2014-Aug-13 15:33N 51°49' E 005°01'1211.6
2014-Aug-13 14:33N 51°49' E 005°20'1111.1
2014-Aug-13 13:33N 51°54' E 005°36'55 9.0
2014-Aug-13 07:23N 51°18' E 006°43'7 8.5
2014-Aug-13 06:34N 51°11' E 006°45'  
2014-Aug-07 19:30N 51°09' E 006°48'3 3.7
2014-Aug-07 18:33N 51°11' E 006°44'3 3.0
2014-Aug-07 17:32N 51°14' E 006°46'8 4.0
2014-Aug-07 15:25N 51°21' E 006°39'56 2.2
2014-Aug-06 14:06N 51°48' E 005°21'3 4.9
2014-Aug-06 13:33N 51°49' E 005°17'6 5.5
2014-Aug-06 12:33N 51°49' E 005°08'6 5.7
2014-Aug-06 11:33N 51°49' E 004°59'8 7.8
2014-Aug-06 10:34N 51°49' E 004°46'7 6.5
2014-Aug-06 09:33N 51°53' E 004°38'9 8.6
2014-Aug-06 08:32N 51°54' E 004°24'1 0.5
2014-Aug-06 06:25N 51°53' E 004°22'0 0.0
2014-Aug-06 05:33N 51°53' E 004°22'0 0.0
2014-Aug-05 23:33N 51°53' E 004°22'0 0.1
2014-Aug-05 22:33N 51°53' E 004°22'0 0.0
2014-Aug-05 21:33N 51°53' E 004°22'0 0.0
2014-Aug-05 20:26N 51°53' E 004°22'0 0.0
2014-Aug-05 19:32N 51°53' E 004°22'0 0.0
2014-Aug-05 18:32N 51°53' E 004°22'0 0.0
2014-Aug-05 17:32N 51°53' E 004°22'  
Track history (hours):
 
Tides and Currents Weather Stations Pressure Air Temp Water Temp Dewpoint Dewpoint Depression Visibility Wind Speed Wind Dir Waves Ship Positions

Rp Zug

Last reported at 2014-Aug-15 17:31 UTC. Time now 2014-Aug-23 03:39 UTC.
Position N 50°55' E 006°58'.

Type: Tanker. MMSI: 269057351.

Date/timePositionNaut miles runAvg speedWind from/ knotsBaromVisibWave heightAir tempDewpointWater temp
2014-Aug-15 17:31N 50°55' E 006°58'15 3.4
2014-Aug-15 13:17N 51°09' E 006°48'3 3.8
2014-Aug-15 12:33N 51°11' E 006°46'3 2.7
2014-Aug-15 11:33N 51°14' E 006°45'3 3.0
2014-Aug-15 10:26N 51°16' E 006°42'49 3.5
2014-Aug-14 20:32N 51°52' E 005°48'6 6.5
2014-Aug-14 19:33N 51°54' E 005°38'6 6.5
2014-Aug-14 18:33N 51°53' E 005°28'6 6.3
2014-Aug-14 17:33N 51°48' E 005°21'6 5.7
2014-Aug-14 16:33N 51°49' E 005°12'6 6.3
2014-Aug-14 15:33N 51°49' E 005°02'7 7.4
2014-Aug-14 14:33N 51°49' E 004°50'6 6.4
2014-Aug-14 13:33N 51°51' E 004°40'7 6.9
2014-Aug-14 12:33N 51°55' E 004°31'5 5.5
2014-Aug-14 11:33N 51°53' E 004°22'0 0.0
2014-Aug-14 10:33N 51°53' E 004°22'0 0.0
2014-Aug-14 09:26N 51°53' E 004°22'0 0.0
2014-Aug-14 08:30N 51°53' E 004°22'0 0.3
2014-Aug-14 07:32N 51°53' E 004°22'0 0.0
2014-Aug-14 06:33N 51°53' E 004°22'0 0.0
2014-Aug-14 05:33N 51°53' E 004°22'0 0.0
2014-Aug-14 04:32N 51°53' E 004°22'0 0.0
2014-Aug-14 03:24N 51°53' E 004°22'0 0.0
2014-Aug-14 02:33N 51°53' E 004°22'0 0.0
2014-Aug-14 01:32N 51°53' E 004°22'0 0.0
2014-Aug-14 00:33N 51°53' E 004°22'0 0.0
2014-Aug-13 23:33N 51°53' E 004°22'0 0.3
2014-Aug-13 22:33N 51°54' E 004°22'0 0.0
2014-Aug-13 21:33N 51°54' E 004°22'0 0.0
2014-Aug-13 20:33N 51°54' E 004°22'0 0.0
2014-Aug-13 19:33N 51°54' E 004°22'0 0.0
2014-Aug-13 18:33N 51°54' E 004°22'7 7.1
2014-Aug-13 17:33N 51°54' E 004°34'8 8.0
2014-Aug-13 16:34N 51°49' E 004°43'1111.0
2014-Aug-13 15:33N 51°49' E 005°01'1211.6
2014-Aug-13 14:33N 51°49' E 005°20'1111.1
2014-Aug-13 13:33N 51°54' E 005°36'55 9.0
2014-Aug-13 07:23N 51°18' E 006°43'7 8.5
2014-Aug-13 06:34N 51°11' E 006°45'  
2014-Aug-07 19:30N 51°09' E 006°48'3 3.7
2014-Aug-07 18:33N 51°11' E 006°44'3 3.0
2014-Aug-07 17:32N 51°14' E 006°46'8 4.0
2014-Aug-07 15:25N 51°21' E 006°39'56 2.2
2014-Aug-06 14:06N 51°48' E 005°21'3 4.9
2014-Aug-06 13:33N 51°49' E 005°17'6 5.5
2014-Aug-06 12:33N 51°49' E 005°08'6 5.7
2014-Aug-06 11:33N 51°49' E 004°59'8 7.8
2014-Aug-06 10:34N 51°49' E 004°46'7 6.5
2014-Aug-06 09:33N 51°53' E 004°38'9 8.6
2014-Aug-06 08:32N 51°54' E 004°24'1 0.5
2014-Aug-06 06:25N 51°53' E 004°22'0 0.0
2014-Aug-06 05:33N 51°53' E 004°22'0 0.0
2014-Aug-05 23:33N 51°53' E 004°22'0 0.1
2014-Aug-05 22:33N 51°53' E 004°22'0 0.0
2014-Aug-05 21:33N 51°53' E 004°22'0 0.0
2014-Aug-05 20:26N 51°53' E 004°22'0 0.0
2014-Aug-05 19:32N 51°53' E 004°22'0 0.0
2014-Aug-05 18:32N 51°53' E 004°22'0 0.0
2014-Aug-05 17:32N 51°53' E 004°22'  

Dump ship's entire track history